createdAt,value
2022-09-15T00:02:28.395Z,13.83
2022-09-15T00:04:54.948Z,13.91
2022-09-15T00:07:22.707Z,13.84
2022-09-15T00:09:49.180Z,13.57
2022-09-15T00:12:15.634Z,13.61
2022-09-15T00:14:42.094Z,13.78
2022-09-15T00:17:08.698Z,13.95
2022-09-15T00:19:35.727Z,13.91
2022-09-15T00:22:03.025Z,13.80
2022-09-15T00:24:29.636Z,13.89
2022-09-15T00:26:57.132Z,14.02
2022-09-15T00:29:23.671Z,14.05
2022-09-15T00:31:50.510Z,14.00
2022-09-15T00:34:17.162Z,14.02
2022-09-15T00:36:43.616Z,14.02
2022-09-15T00:39:10.295Z,13.99
2022-09-15T00:41:39.606Z,13.94
2022-09-15T00:44:35.477Z,13.82
2022-09-15T00:47:18.635Z,13.76
2022-09-15T00:49:49.772Z,13.61
2022-09-15T00:52:21.252Z,13.53
2022-09-15T00:55:08.831Z,13.35
2022-09-15T00:57:51.393Z,13.41
2022-09-15T01:00:21.072Z,13.50
2022-09-15T01:02:48.533Z,13.59
2022-09-15T01:05:17.685Z,13.46
2022-09-15T01:07:56.488Z,13.39
2022-09-15T01:10:31.711Z,13.27
2022-09-15T01:13:04.639Z,13.36
2022-09-15T01:15:48.990Z,13.52
2022-09-15T01:18:44.619Z,13.53
2022-09-15T01:21:37.738Z,13.47
2022-09-15T01:24:23.560Z,13.42
2022-09-15T01:27:13.711Z,13.43
2022-09-15T01:29:54.142Z,13.44
2022-09-15T01:33:04.969Z,13.39
2022-09-15T01:35:43.444Z,13.40
2022-09-15T01:38:31.855Z,13.35
2022-09-15T01:41:14.223Z,13.38
2022-09-15T01:43:49.367Z,13.33
2022-09-15T01:46:17.681Z,13.31
2022-09-15T01:48:44.959Z,13.40
2022-09-15T01:51:20.704Z,13.41
2022-09-15T01:53:49.731Z,13.35
2022-09-15T01:56:16.269Z,13.28
2022-09-15T01:58:42.804Z,13.26
2022-09-15T02:01:35.055Z,13.25
2022-09-15T02:04:14.902Z,13.26
2022-09-15T02:06:54.271Z,13.24
2022-09-15T02:09:44.735Z,13.05
2022-09-15T02:12:29.269Z,13.17
2022-09-15T02:15:11.307Z,13.08
2022-09-15T02:17:43.667Z,13.08
2022-09-15T02:20:10.431Z,13.03
2022-09-15T02:22:38.158Z,12.99
2022-09-15T02:25:16.078Z,12.97
2022-09-15T02:27:51.713Z,12.89
2022-09-15T02:30:20.020Z,12.86
2022-09-15T02:32:59.793Z,12.81
2022-09-15T02:35:28.343Z,12.77
2022-09-15T02:37:58.326Z,12.78
2022-09-15T02:40:28.216Z,12.69
2022-09-15T02:43:03.172Z,12.61
2022-09-15T02:45:31.776Z,12.56
2022-09-15T02:47:59.408Z,12.48
2022-09-15T02:50:26.799Z,12.48
2022-09-15T02:52:56.217Z,12.52
2022-09-15T02:55:24.231Z,12.50
2022-09-15T02:57:50.682Z,12.51
2022-09-15T03:00:20.099Z,12.38
2022-09-15T03:02:51.943Z,12.42
2022-09-15T03:05:20.676Z,12.52
2022-09-15T03:07:47.144Z,12.46
2022-09-15T03:10:14.261Z,12.46
2022-09-15T03:12:46.230Z,12.43
2022-09-15T03:15:14.986Z,12.46
2022-09-15T03:17:43.377Z,12.47
2022-09-15T03:20:12.041Z,12.40
2022-09-15T03:22:38.874Z,12.44
2022-09-15T03:25:06.649Z,12.42
2022-09-15T03:27:34.146Z,12.38
2022-09-15T03:30:00.958Z,12.44
2022-09-15T03:32:27.883Z,12.35
2022-09-15T03:34:58.334Z,12.31
2022-09-15T03:37:25.649Z,12.33
2022-09-15T03:39:52.137Z,12.34
2022-09-15T03:42:22.051Z,12.41
2022-09-15T03:44:48.537Z,12.37
2022-09-15T03:47:14.981Z,12.46
2022-09-15T03:49:41.544Z,12.51
2022-09-15T03:52:07.983Z,12.52
2022-09-15T03:54:35.758Z,12.43
2022-09-15T03:57:03.622Z,12.48
2022-09-15T03:59:30.093Z,12.56
2022-09-15T04:01:56.663Z,12.47
2022-09-15T04:04:23.497Z,12.61
2022-09-15T04:06:49.971Z,12.60
2022-09-15T04:09:20.485Z,12.64
2022-09-15T04:11:51.399Z,12.61
2022-09-15T04:14:17.874Z,12.59
2022-09-15T04:16:44.403Z,12.63
2022-09-15T04:19:12.802Z,12.58
2022-09-15T04:21:39.541Z,12.64
2022-09-15T04:24:06.141Z,12.70
2022-09-15T04:26:35.317Z,12.71
2022-09-15T04:29:04.666Z,12.63
2022-09-15T04:31:32.397Z,12.70
2022-09-15T04:34:00.145Z,12.74
2022-09-15T04:36:28.747Z,12.66
2022-09-15T04:38:57.319Z,12.68
2022-09-15T04:41:25.555Z,12.65
2022-09-15T04:43:52.342Z,12.69
2022-09-15T04:46:19.054Z,12.65
2022-09-15T04:48:46.309Z,12.63
2022-09-15T04:51:18.532Z,12.72
2022-09-15T04:53:45.133Z,12.62
2022-09-15T04:56:17.309Z,12.68
2022-09-15T04:58:49.614Z,12.72
2022-09-15T05:01:22.189Z,12.76
2022-09-15T05:03:49.468Z,12.80
2022-09-15T05:06:18.120Z,12.83
2022-09-15T05:08:53.333Z,12.99
2022-09-15T05:11:20.037Z,13.06
2022-09-15T05:13:46.951Z,13.18
2022-09-15T05:16:18.356Z,13.26
2022-09-15T05:18:46.340Z,13.38
2022-09-15T05:21:14.754Z,13.35
2022-09-15T05:23:41.710Z,13.29
2022-09-15T05:26:32.826Z,13.38
2022-09-15T05:29:00.578Z,13.38
2022-09-15T05:31:34.327Z,13.43
2022-09-15T05:34:03.882Z,13.41
2022-09-15T05:36:30.843Z,13.30
2022-09-15T05:38:57.956Z,13.27
2022-09-15T05:41:25.869Z,13.32
2022-09-15T05:43:53.978Z,13.33
2022-09-15T05:46:20.659Z,13.45
2022-09-15T05:48:49.473Z,13.50
2022-09-15T05:51:17.130Z,13.59
2022-09-15T05:53:43.674Z,13.61
2022-09-15T05:56:12.101Z,13.66
2022-09-15T05:58:43.137Z,13.52
2022-09-15T06:01:20.870Z,13.69
2022-09-15T06:03:49.309Z,13.75
2022-09-15T06:06:16.053Z,13.58
2022-09-15T06:08:48.722Z,13.54
2022-09-15T06:11:31.399Z,13.66
2022-09-15T06:14:03.269Z,13.74
2022-09-15T06:16:32.831Z,13.69
2022-09-15T06:19:00.686Z,13.55
2022-09-15T06:21:30.197Z,13.59
2022-09-15T06:24:04.490Z,13.79
2022-09-15T06:26:31.424Z,13.86
2022-09-15T06:29:02.790Z,13.81
2022-09-15T06:31:31.619Z,13.81
2022-09-15T06:33:58.720Z,13.70
2022-09-15T06:36:29.475Z,13.55
2022-09-15T06:39:04.845Z,13.51
2022-09-15T06:41:52.506Z,13.80
2022-09-15T06:44:21.541Z,13.97
2022-09-15T06:46:48.488Z,13.88
2022-09-15T06:49:14.934Z,13.77
2022-09-15T06:51:42.122Z,13.91
2022-09-15T06:54:08.702Z,14.04
2022-09-15T06:56:38.057Z,14.15
2022-09-15T06:59:05.087Z,14.17
2022-09-15T07:01:32.463Z,14.09
2022-09-15T07:04:00.943Z,14.17
2022-09-15T07:06:32.875Z,14.25
2022-09-15T07:09:01.582Z,14.47
2022-09-15T07:11:30.179Z,14.34
2022-09-15T07:13:57.920Z,14.36
2022-09-15T07:16:28.322Z,14.58
2022-09-15T07:19:02.287Z,14.48
2022-09-15T07:21:28.860Z,14.67
2022-09-15T07:23:57.341Z,14.75
2022-09-15T07:26:29.025Z,14.82
2022-09-15T07:29:00.925Z,14.96
2022-09-15T07:31:32.992Z,14.98
2022-09-15T07:34:00.208Z,15.12
2022-09-15T07:36:26.968Z,15.25
2022-09-15T07:38:53.585Z,15.47
2022-09-15T07:41:31.463Z,15.74
2022-09-15T07:43:59.370Z,16.01
2022-09-15T07:46:27.372Z,16.33
2022-09-15T07:48:57.355Z,15.89
2022-09-15T07:51:27.261Z,15.75
2022-09-15T07:53:54.172Z,16.15
2022-09-15T07:56:21.706Z,16.61
2022-09-15T07:58:49.309Z,17.12
2022-09-15T08:01:17.302Z,17.64
2022-09-15T08:03:52.113Z,17.52
2022-09-15T08:06:21.258Z,16.72
2022-09-15T08:08:50.096Z,16.39
2022-09-15T08:11:19.323Z,16.15
2022-09-15T08:13:46.792Z,15.92
2022-09-15T08:16:16.339Z,15.73
2022-09-15T08:18:44.279Z,15.65
2022-09-15T08:21:17.600Z,15.44
2022-09-15T08:23:45.173Z,15.32
2022-09-15T08:26:14.331Z,15.34
2022-09-15T08:28:41.987Z,15.42
2022-09-15T08:31:12.004Z,15.10
2022-09-15T08:33:46.142Z,15.25
2022-09-15T08:36:14.661Z,15.20
2022-09-15T08:38:44.164Z,15.56
2022-09-15T08:41:23.958Z,15.88
2022-09-15T08:43:57.187Z,16.03
2022-09-15T08:46:37.800Z,16.09
2022-09-15T08:49:49.899Z,16.38
2022-09-15T08:52:35.567Z,16.87
2022-09-15T08:55:06.600Z,16.54
2022-09-15T08:57:33.392Z,16.02
2022-09-15T08:59:59.924Z,15.69
2022-09-15T09:03:07.887Z,15.80
2022-09-15T09:05:53.134Z,15.88
2022-09-15T09:08:47.931Z,15.91
2022-09-15T09:11:14.813Z,16.01
2022-09-15T09:13:57.455Z,15.96
2022-09-15T09:16:58.595Z,16.10
2022-09-15T09:19:56.782Z,16.63
2022-09-15T09:22:25.674Z,16.97
2022-09-15T09:24:55.563Z,16.90
2022-09-15T09:27:25.457Z,16.81
2022-09-15T09:30:01.913Z,16.64
2022-09-15T09:32:42.623Z,16.50
2022-09-15T09:35:28.245Z,16.26
2022-09-15T09:37:55.145Z,16.62
2022-09-15T09:40:22.367Z,16.65
2022-09-15T09:42:49.204Z,16.76
2022-09-15T09:45:18.703Z,16.81
2022-09-15T09:47:46.317Z,16.86
2022-09-15T09:50:34.940Z,17.05
2022-09-15T09:53:22.560Z,17.15
2022-09-15T09:55:49.489Z,16.84
2022-09-15T09:58:25.019Z,17.39
2022-09-15T10:00:52.885Z,17.97
2022-09-15T10:03:32.844Z,18.22
2022-09-15T10:06:16.129Z,17.89
2022-09-15T10:09:17.517Z,17.85
2022-09-15T10:11:53.194Z,17.62
2022-09-15T10:14:31.725Z,17.36
2022-09-15T10:17:03.689Z,17.27
2022-09-15T10:19:55.921Z,17.51
2022-09-15T10:22:39.787Z,17.71
2022-09-15T10:25:49.403Z,17.84
2022-09-15T10:28:23.847Z,18.18
2022-09-15T10:31:10.879Z,18.30
2022-09-15T10:33:42.672Z,18.48
2022-09-15T10:36:24.038Z,19.13
2022-09-15T10:39:23.824Z,19.30
2022-09-15T10:42:24.230Z,19.21
2022-09-15T10:45:10.844Z,18.64
2022-09-15T10:48:08.381Z,18.63
2022-09-15T10:51:04.983Z,18.26
2022-09-15T10:54:14.202Z,18.46
2022-09-15T10:56:49.586Z,17.87
2022-09-15T10:59:37.884Z,17.47
2022-09-15T11:02:24.591Z,17.66
2022-09-15T11:05:23.838Z,18.47
2022-09-15T11:08:22.788Z,18.37
2022-09-15T11:11:02.013Z,17.76
2022-09-15T11:13:52.354Z,17.51
2022-09-15T11:16:43.964Z,17.51
2022-09-15T11:19:54.334Z,17.40
2022-09-15T11:22:29.138Z,17.25
2022-09-15T11:25:12.910Z,17.28
2022-09-15T11:27:46.782Z,17.33
2022-09-15T11:30:36.931Z,17.32
2022-09-15T11:33:19.810Z,17.19
2022-09-15T11:35:59.545Z,17.14
2022-09-15T11:38:45.010Z,16.97
2022-09-15T11:41:34.313Z,16.60
2022-09-15T11:44:40.051Z,16.40
2022-09-15T11:47:26.468Z,16.02
2022-09-15T11:50:10.053Z,15.76
2022-09-15T11:53:17.936Z,15.39
2022-09-15T11:56:12.587Z,15.35
2022-09-15T11:59:29.368Z,15.55
2022-09-15T12:02:31.384Z,16.13
2022-09-15T12:05:12.514Z,16.79
2022-09-15T12:08:10.385Z,16.88
2022-09-15T12:10:40.418Z,16.89
2022-09-15T12:13:10.331Z,16.95
2022-09-15T12:15:40.090Z,17.06
2022-09-15T12:18:41.774Z,17.00
2022-09-15T12:21:12.810Z,17.16
2022-09-15T12:23:44.428Z,17.26
2022-09-15T12:26:16.211Z,17.75
2022-09-15T12:29:03.089Z,17.45
2022-09-15T12:31:34.608Z,17.92
2022-09-15T12:34:26.044Z,18.48
2022-09-15T12:36:55.199Z,18.44
2022-09-15T12:39:43.769Z,18.31
2022-09-15T12:42:23.576Z,18.76
2022-09-15T12:44:54.634Z,18.70
2022-09-15T12:47:30.172Z,18.62
2022-09-15T12:50:01.004Z,18.58
2022-09-15T12:52:29.230Z,18.21
2022-09-15T12:54:59.500Z,18.00
2022-09-15T12:57:36.486Z,17.48
2022-09-15T13:00:36.287Z,17.58
2022-09-15T13:03:05.384Z,17.42
2022-09-15T13:05:41.057Z,17.35
2022-09-15T13:08:23.868Z,17.33
2022-09-15T13:11:09.773Z,17.06
2022-09-15T13:13:43.900Z,17.00
2022-09-15T13:16:29.490Z,16.83
2022-09-15T13:19:41.349Z,16.97
2022-09-15T13:22:19.234Z,16.99
2022-09-15T13:24:59.122Z,16.79
2022-09-15T13:28:03.814Z,17.46
2022-09-15T13:30:55.332Z,18.05
2022-09-15T13:40:27.022Z,17.91
2022-09-15T13:43:02.616Z,17.73
2022-09-15T13:46:05.735Z,17.69
2022-09-15T13:49:32.063Z,18.19
2022-09-15T13:52:24.612Z,18.02
2022-09-15T13:55:28.993Z,17.71
2022-09-15T14:01:00.232Z,18.04
2022-09-15T14:03:45.994Z,17.86
2022-09-15T14:06:22.858Z,17.51
2022-09-15T14:08:54.107Z,16.85
2022-09-15T14:11:31.451Z,16.52
2022-09-15T14:14:00.550Z,16.61
2022-09-15T14:16:31.263Z,16.45
2022-09-15T14:19:00.371Z,16.70
2022-09-15T14:21:32.353Z,16.49
2022-09-15T14:24:04.312Z,16.67
2022-09-15T14:26:33.015Z,16.92
2022-09-15T14:29:04.238Z,17.06
2022-09-15T14:31:39.313Z,17.14
2022-09-15T14:34:16.273Z,17.04
2022-09-15T14:37:21.951Z,17.11
2022-09-15T14:39:56.607Z,16.87
2022-09-15T14:42:51.424Z,16.88
2022-09-15T14:48:20.129Z,17.29
2022-09-15T14:51:02.181Z,17.46
2022-09-15T14:53:33.202Z,17.46
2022-09-15T14:56:09.496Z,17.27
2022-09-15T14:58:49.967Z,16.95
2022-09-15T15:01:51.606Z,16.71
2022-09-15T15:04:33.228Z,16.56
2022-09-15T15:07:29.289Z,16.33
2022-09-15T15:09:59.102Z,16.40
2022-09-15T15:12:40.591Z,16.38
2022-09-15T15:15:11.190Z,16.55
2022-09-15T15:17:46.693Z,16.57
2022-09-15T15:20:26.827Z,16.49
2022-09-15T15:23:27.456Z,16.60
2022-09-15T15:25:54.614Z,16.47
2022-09-15T15:28:35.828Z,16.47
2022-09-15T15:31:08.125Z,16.27
2022-09-15T15:33:34.917Z,16.27
2022-09-15T15:36:10.264Z,16.27
2022-09-15T15:38:44.907Z,16.23
2022-09-15T15:41:28.466Z,16.28
2022-09-15T15:43:57.421Z,16.30
2022-09-15T15:46:52.532Z,16.10
2022-09-15T15:49:21.260Z,15.95
2022-09-15T15:51:47.888Z,16.07
2022-09-15T15:54:15.792Z,16.04
2022-09-15T15:56:42.698Z,15.98
2022-09-15T15:59:14.871Z,15.84
2022-09-15T16:01:43.799Z,15.84
2022-09-15T16:04:11.424Z,15.74
2022-09-15T16:06:38.103Z,15.77
2022-09-15T16:09:06.031Z,15.69
2022-09-15T16:11:32.726Z,15.65
2022-09-15T16:13:59.384Z,15.51
2022-09-15T16:16:27.418Z,15.41
2022-09-15T16:18:54.263Z,15.47
2022-09-15T16:21:28.992Z,15.33
2022-09-15T16:23:55.507Z,15.25
2022-09-15T16:26:23.667Z,15.18
2022-09-15T16:28:51.236Z,15.28
2022-09-15T16:31:17.776Z,15.09
2022-09-15T16:33:44.317Z,15.12
2022-09-15T16:36:13.213Z,15.18
2022-09-15T16:38:41.044Z,15.23
2022-09-15T16:41:26.067Z,15.24
2022-09-15T16:43:56.697Z,15.17
2022-09-15T16:46:23.235Z,15.03
2022-09-15T16:48:49.853Z,14.83
2022-09-15T16:51:34.250Z,14.94
2022-09-15T16:54:03.706Z,14.86
2022-09-15T16:56:30.175Z,14.70
2022-09-15T16:59:00.137Z,14.83
2022-09-15T17:01:27.252Z,14.70
2022-09-15T17:03:53.802Z,14.79
2022-09-15T17:06:22.001Z,14.57
2022-09-15T17:08:48.557Z,14.63
2022-09-15T17:11:19.759Z,14.51
2022-09-15T17:13:46.425Z,14.54
2022-09-15T17:16:15.371Z,14.58
2022-09-15T17:18:41.927Z,14.65
2022-09-15T17:21:11.371Z,14.49
2022-09-15T17:23:40.519Z,14.34
2022-09-15T17:26:11.463Z,14.36
2022-09-15T17:28:38.155Z,14.34
2022-09-15T17:31:06.733Z,14.27
2022-09-15T17:33:33.313Z,14.22
2022-09-15T17:36:00.321Z,14.31
2022-09-15T17:38:27.705Z,14.21
2022-09-15T17:40:55.347Z,14.09
2022-09-15T17:43:24.475Z,14.10
2022-09-15T17:45:51.732Z,13.99
2022-09-15T17:48:18.601Z,13.99
2022-09-15T17:50:46.334Z,14.09
2022-09-15T17:53:18.563Z,14.05
2022-09-15T17:55:46.491Z,13.95
2022-09-15T17:58:16.677Z,13.86
2022-09-15T18:00:53.993Z,13.84
2022-09-15T18:03:29.881Z,13.77
2022-09-15T18:06:04.731Z,13.67
2022-09-15T18:08:36.923Z,13.61
2022-09-15T18:11:14.610Z,13.59
2022-09-15T18:13:46.274Z,13.61
2022-09-15T18:16:18.510Z,13.58
2022-09-15T18:18:45.271Z,13.62
2022-09-15T18:21:23.523Z,13.61
2022-09-15T18:23:49.973Z,13.63
2022-09-15T18:26:16.487Z,13.63
2022-09-15T18:28:44.608Z,13.25
2022-09-15T18:31:13.687Z,13.17
2022-09-15T18:33:43.759Z,12.99
2022-09-15T18:38:51.447Z,13.05
2022-09-15T18:41:18.913Z,13.15
2022-09-15T18:43:49.027Z,13.07
2022-09-15T18:46:16.041Z,13.15
2022-09-15T18:48:42.788Z,12.94
2022-09-15T18:51:10.034Z,13.08
2022-09-15T18:53:38.270Z,13.12
2022-09-15T18:56:11.765Z,12.95
2022-09-15T18:58:38.393Z,12.89
2022-09-15T19:01:05.232Z,12.74
2022-09-15T19:03:44.092Z,12.68
2022-09-15T19:06:12.134Z,12.65
2022-09-15T19:08:41.521Z,12.31
2022-09-15T19:11:11.253Z,12.50
2022-09-15T19:13:37.973Z,12.53
2022-09-15T19:16:05.829Z,12.51
2022-09-15T19:18:33.345Z,12.27
2022-09-15T19:21:11.047Z,12.40
2022-09-15T19:23:38.223Z,12.22
2022-09-15T19:26:06.320Z,12.19
2022-09-15T19:28:33.474Z,11.99
2022-09-15T19:31:00.975Z,12.19
2022-09-15T19:33:28.013Z,12.13
2022-09-15T19:36:10.699Z,12.05
2022-09-15T19:38:41.473Z,12.11
2022-09-15T19:41:11.692Z,12.18
2022-09-15T19:43:41.496Z,12.09
2022-09-15T19:46:16.069Z,12.23
2022-09-15T19:48:46.530Z,12.24
2022-09-15T19:51:17.538Z,12.09
2022-09-15T19:53:44.453Z,11.99
2022-09-15T19:56:16.156Z,12.01
2022-09-15T19:58:45.080Z,12.03
2022-09-15T20:01:11.732Z,12.00
2022-09-15T20:03:39.710Z,11.79
2022-09-15T20:06:08.295Z,11.90
2022-09-15T20:08:37.756Z,11.83
2022-09-15T20:11:06.599Z,11.93
2022-09-15T20:13:43.747Z,11.99
2022-09-15T20:16:17.707Z,12.06
2022-09-15T20:18:48.749Z,12.26
2022-09-15T20:21:51.098Z,12.30
2022-09-15T20:24:19.604Z,12.31
2022-09-15T20:26:46.238Z,12.41
2022-09-15T20:29:15.935Z,12.34
2022-09-15T20:31:42.713Z,12.46
2022-09-15T20:34:09.463Z,12.43
2022-09-15T20:36:39.764Z,12.41
2022-09-15T20:39:10.431Z,12.31
2022-09-15T20:41:37.497Z,12.29
2022-09-15T20:44:06.369Z,12.02
2022-09-15T20:46:34.743Z,12.20
2022-09-15T20:49:01.718Z,12.09
2022-09-15T20:51:34.018Z,11.92
2022-09-15T20:54:02.122Z,11.98
2022-09-15T20:56:30.241Z,11.98
2022-09-15T20:59:01.509Z,11.96
2022-09-15T21:01:36.772Z,11.99
2022-09-15T21:04:06.461Z,12.05
2022-09-15T21:06:45.650Z,11.98
2022-09-15T21:09:12.450Z,12.06
2022-09-15T21:11:43.104Z,11.96
2022-09-15T21:14:14.016Z,12.03
2022-09-15T21:16:41.082Z,12.07
2022-09-15T21:19:09.601Z,12.15
2022-09-15T21:21:41.629Z,12.25
2022-09-15T21:24:09.664Z,12.23
2022-09-15T21:26:59.809Z,12.18
2022-09-15T21:29:27.760Z,12.20
2022-09-15T21:31:55.797Z,12.25
2022-09-15T21:34:29.972Z,12.18
2022-09-15T21:36:57.913Z,12.17
2022-09-15T21:39:24.500Z,12.17
2022-09-15T21:41:51.159Z,12.21
2022-09-15T21:44:21.167Z,12.14
2022-09-15T21:46:50.463Z,12.03
2022-09-15T21:49:18.221Z,12.08
2022-09-15T21:51:44.874Z,11.95
2022-09-15T21:54:11.520Z,12.10
2022-09-15T21:56:39.747Z,11.96
2022-09-15T21:59:06.323Z,12.01
2022-09-15T22:01:33.394Z,12.04
2022-09-15T22:04:08.032Z,11.99
2022-09-15T22:06:36.730Z,11.93
2022-09-15T22:09:14.170Z,11.95
2022-09-15T22:11:41.314Z,11.88
2022-09-15T22:14:08.331Z,11.93
2022-09-15T22:16:37.004Z,11.92
2022-09-15T22:19:05.452Z,11.91
2022-09-15T22:21:36.545Z,11.93
2022-09-15T22:24:05.463Z,11.93
2022-09-15T22:26:33.410Z,11.91
2022-09-15T22:29:00.056Z,11.93
2022-09-15T22:31:28.172Z,11.89
2022-09-15T22:33:55.354Z,11.93
2022-09-15T22:36:29.736Z,11.93
2022-09-15T22:39:04.838Z,11.95
2022-09-15T22:41:36.808Z,11.89
2022-09-15T22:44:04.239Z,11.84
2022-09-15T22:46:31.097Z,11.91
2022-09-15T22:48:58.801Z,11.80
2022-09-15T22:51:27.738Z,11.88
2022-09-15T22:53:56.986Z,11.80
2022-09-15T22:56:26.130Z,11.88
2022-09-15T22:58:53.030Z,11.74
2022-09-15T23:01:22.347Z,11.89
2022-09-15T23:03:53.564Z,11.82
2022-09-15T23:06:21.377Z,11.76
2022-09-15T23:08:56.153Z,11.78
2022-09-15T23:11:23.356Z,11.80
2022-09-15T23:13:50.173Z,11.84
2022-09-15T23:16:17.007Z,11.80
2022-09-15T23:18:44.621Z,11.79
2022-09-15T23:21:12.250Z,11.74
2022-09-15T23:23:40.395Z,11.76
2022-09-15T23:26:08.739Z,11.68
2022-09-15T23:28:35.383Z,11.66
2022-09-15T23:31:05.673Z,11.70
2022-09-15T23:33:32.367Z,11.65
2022-09-15T23:36:00.566Z,11.61
2022-09-15T23:38:27.654Z,11.63
2022-09-15T23:40:55.573Z,11.64
2022-09-15T23:43:22.376Z,11.58
2022-09-15T23:45:50.271Z,11.59
2022-09-15T23:48:18.483Z,11.58
2022-09-15T23:50:45.291Z,11.51
2022-09-15T23:53:12.361Z,11.51
2022-09-15T23:55:39.022Z,11.54
2022-09-15T23:58:05.935Z,11.42
